Time;durP1;ratioP1;P1;durP2;ratioP2;P2;SDS_P1;SDS_P2;PMS_P1;PMS_P2;Temp;Humidity;BMP_temperature;BMP_pressure;BME280_temperature;BME280_humidity;BME280_pressure;Samples;Min_cycle;Max_cycle;Signal;HPM_P1;HPM_P2
2021/07/07 00:01:05;;;;;;;2.28;2.17;;;23.70;99.90;;;;;;4950815;28;20697;-67
2021/07/07 00:03:32;;;;;;;2.30;2.20;;;23.70;99.90;;;;;;4949423;29;20292;-68
2021/07/07 00:06:00;;;;;;;3.47;2.45;;;23.70;99.90;;;;;;4951139;28;20950;-67
2021/07/07 00:08:26;;;;;;;2.80;2.70;;;23.60;99.90;;;;;;4950682;29;20197;-67
2021/07/07 00:10:53;;;;;;;2.45;2.35;;;23.50;99.90;;;;;;4946112;28;20197;-67
2021/07/07 00:13:21;;;;;;;3.10;2.80;;;23.50;99.90;;;;;;4943979;28;20704;-67
2021/07/07 00:15:48;;;;;;;2.70;2.60;;;23.50;99.90;;;;;;4950673;29;20508;-67
2021/07/07 00:18:16;;;;;;;2.70;2.60;;;23.40;99.90;;;;;;4950139;29;20319;-67
2021/07/07 00:20:46;;;;;;;3.00;2.70;;;23.40;99.90;;;;;;4947249;29;20239;-67
2021/07/07 00:23:14;;;;;;;2.90;2.72;;;23.40;99.90;;;;;;4950930;28;20212;-69
2021/07/07 00:25:41;;;;;;;2.70;2.60;;;23.40;99.90;;;;;;4950767;29;20578;-67
2021/07/07 00:28:08;;;;;;;2.75;2.55;;;23.40;99.90;;;;;;4948820;29;20194;-66
2021/07/07 00:30:35;;;;;;;2.60;2.50;;;23.40;99.90;;;;;;4950123;29;20220;-66
2021/07/07 00:33:03;;;;;;;2.75;2.50;;;23.40;99.90;;;;;;4949975;29;20200;-66
2021/07/07 00:35:31;;;;;;;2.25;2.10;;;23.40;99.90;;;;;;4949934;28;20312;-67
2021/07/07 00:37:59;;;;;;;2.30;2.20;;;23.40;99.90;;;;;;4950949;28;20574;-66
2021/07/07 00:40:26;;;;;;;2.47;2.38;;;23.30;99.90;;;;;;4948508;29;20339;-66
2021/07/07 00:42:53;;;;;;;2.50;2.40;;;23.30;99.90;;;;;;4949908;29;20259;-66
2021/07/07 00:45:20;;;;;;;2.28;2.17;;;23.30;99.90;;;;;;4959697;28;20645;-67
2021/07/07 00:47:48;;;;;;;3.78;3.47;;;23.30;99.90;;;;;;4949908;29;20223;-66
2021/07/07 00:50:16;;;;;;;2.90;2.80;;;23.20;99.90;;;;;;4949305;28;20303;-66
2021/07/07 00:52:45;;;;;;;2.80;2.60;;;23.20;99.90;;;;;;4953134;28;20229;-66
2021/07/07 00:55:14;;;;;;;2.67;2.47;;;23.20;99.90;;;;;;4954178;29;20308;-66
2021/07/07 00:57:44;;;;;;;2.70;2.17;;;23.20;99.90;;;;;;4953263;29;20645;-67
2021/07/07 01:00:13;;;;;;;2.33;2.22;;;23.10;99.90;;;;;;4965076;28;20652;-67
2021/07/07 01:02:45;;;;;;;2.53;2.33;;;23.10;99.90;;;;;;4953215;29;20203;-67
2021/07/07 01:05:14;;;;;;;2.00;1.90;;;23.10;99.90;;;;;;4962855;28;20594;-67
2021/07/07 01:07:42;;;;;;;2.25;2.15;;;23.20;99.90;;;;;;4941627;29;20682;-67
2021/07/07 01:10:12;;;;;;;2.33;2.22;;;23.20;99.90;;;;;;4953533;29;20216;-66
2021/07/07 01:12:40;;;;;;;2.22;2.13;;;23.10;99.90;;;;;;4954196;28;20730;-67
2021/07/07 01:15:09;;;;;;;2.50;2.30;;;23.20;99.90;;;;;;4943495;29;20716;-67
2021/07/07 01:17:37;;;;;;;2.30;2.20;;;23.10;99.90;;;;;;4953417;29;20280;-67
2021/07/07 01:20:08;;;;;;;2.40;2.30;;;23.10;99.90;;;;;;4952995;28;20233;-67
2021/07/07 01:22:36;;;;;;;2.25;2.15;;;23.10;99.90;;;;;;4954037;29;20213;-67
2021/07/07 01:25:04;;;;;;;2.20;2.10;;;23.10;99.90;;;;;;4953766;28;20202;-67
2021/07/07 01:27:31;;;;;;;2.25;2.15;;;23.00;99.90;;;;;;4954425;28;20209;-67
2021/07/07 01:29:58;;;;;;;2.65;2.55;;;23.00;99.90;;;;;;4952762;29;20209;-67
2021/07/07 01:32:26;;;;;;;2.40;2.30;;;23.00;99.90;;;;;;4956500;28;20208;-67
2021/07/07 01:34:53;;;;;;;2.78;2.67;;;22.90;99.90;;;;;;4953241;29;20229;-66
2021/07/07 01:37:22;;;;;;;2.63;2.50;;;22.90;99.90;;;;;;4954292;29;20213;-67
2021/07/07 01:39:50;;;;;;;2.58;2.47;;;22.90;99.90;;;;;;4953142;29;20205;-66
2021/07/07 01:42:18;;;;;;;3.55;3.20;;;22.80;99.90;;;;;;4952071;28;20237;-66
2021/07/07 01:44:45;;;;;;;3.03;2.83;;;22.80;99.90;;;;;;4951700;28;20760;-67
2021/07/07 01:47:12;;;;;;;3.15;2.95;;;22.80;99.90;;;;;;4950793;28;20193;-66
2021/07/07 01:49:39;;;;;;;2.97;2.88;;;22.70;99.90;;;;;;4951572;29;20444;-67
2021/07/07 01:52:07;;;;;;;3.05;2.85;;;22.70;99.90;;;;;;4965327;28;20229;-67
2021/07/07 01:54:34;;;;;;;2.83;2.63;;;22.60;99.90;;;;;;4951931;28;20713;-67
2021/07/07 01:57:03;;;;;;;3.30;3.10;;;22.60;99.90;;;;;;4952390;28;20636;-67
2021/07/07 01:59:30;;;;;;;2.90;2.70;;;22.50;99.90;;;;;;4951997;28;20280;-68
2021/07/07 02:01:57;;;;;;;3.20;3.00;;;22.50;99.90;;;;;;4956335;28;20209;-67
2021/07/07 02:04:24;;;;;;;3.05;2.85;;;22.40;99.90;;;;;;4951442;29;20277;-67
2021/07/07 02:06:51;;;;;;;2.72;2.63;;;22.40;99.90;;;;;;4951089;28;20627;-66
2021/07/07 02:09:19;;;;;;;3.17;2.97;;;22.40;99.90;;;;;;4952583;28;20287;-67
2021/07/07 02:11:47;;;;;;;2.78;2.67;;;22.40;99.90;;;;;;4955132;28;20565;-66
2021/07/07 02:14:15;;;;;;;3.03;2.83;;;22.40;99.90;;;;;;4951741;28;20208;-67
2021/07/07 02:16:43;;;;;;;2.60;2.50;;;22.40;99.90;;;;;;4965382;28;20319;-66
2021/07/07 02:19:10;;;;;;;2.90;2.63;;;22.40;99.90;;;;;;4951368;28;20304;-66
2021/07/07 02:21:37;;;;;;;2.90;2.70;;;22.40;99.90;;;;;;4951639;29;20547;-67
2021/07/07 02:24:05;;;;;;;3.45;3.25;;;22.30;99.90;;;;;;4949768;29;20204;-67
2021/07/07 02:26:32;;;;;;;3.30;3.10;;;22.40;99.90;;;;;;4950485;28;20201;-67
2021/07/07 02:28:59;;;;;;;3.17;2.97;;;22.30;99.90;;;;;;4951682;28;20213;-66
2021/07/07 02:31:28;;;;;;;2.90;2.70;;;22.30;99.90;;;;;;4950788;28;20280;-66
2021/07/07 02:33:54;;;;;;;2.55;2.45;;;22.30;99.90;;;;;;4948895;28;20205;-67
2021/07/07 02:36:22;;;;;;;2.60;2.50;;;22.30;99.90;;;;;;4952017;28;20221;-66
2021/07/07 02:38:48;;;;;;;3.00;2.80;;;22.30;99.90;;;;;;4950755;28;20209;-67
2021/07/07 02:41:15;;;;;;;3.63;2.72;;;22.30;99.90;;;;;;4914064;28;1091048;-67
2021/07/07 02:43:42;;;;;;;3.00;2.80;;;22.20;99.90;;;;;;4950491;29;20375;-66
2021/07/07 02:46:09;;;;;;;2.70;2.50;;;22.20;99.90;;;;;;4952519;29;20197;-67
2021/07/07 02:48:38;;;;;;;2.53;2.33;;;22.30;99.90;;;;;;4950707;28;20201;-67
2021/07/07 02:51:05;;;;;;;2.88;2.63;;;22.30;99.90;;;;;;4952530;29;20307;-66
2021/07/07 02:53:31;;;;;;;2.80;2.65;;;22.30;99.90;;;;;;4951089;28;20205;-66
2021/07/07 02:55:58;;;;;;;2.92;2.72;;;22.20;99.90;;;;;;4952873;29;20259;-66
2021/07/07 02:58:25;;;;;;;2.75;2.65;;;22.30;99.90;;;;;;4950558;28;20209;-65
2021/07/07 03:00:52;;;;;;;3.08;2.78;;;22.30;99.90;;;;;;4951862;28;20604;-66
2021/07/07 03:03:21;;;;;;;2.83;2.72;;;22.20;99.90;;;;;;4949044;28;20303;-65
2021/07/07 03:05:51;;;;;;;2.65;2.55;;;22.20;99.90;;;;;;4951711;28;20581;-66
2021/07/07 03:08:19;;;;;;;3.00;2.80;;;22.20;99.90;;;;;;4939314;28;20264;-67
2021/07/07 03:10:48;;;;;;;2.90;2.70;;;22.20;99.90;;;;;;4952102;28;20228;-66
2021/07/07 03:13:16;;;;;;;3.30;3.00;;;22.20;99.90;;;;;;4947808;29;20281;-66
2021/07/07 03:15:44;;;;;;;2.80;2.70;;;22.20;99.90;;;;;;4944371;28;20240;-67
2021/07/07 03:18:12;;;;;;;2.55;2.45;;;22.20;99.90;;;;;;4950065;28;20201;-66
2021/07/07 03:20:42;;;;;;;2.45;2.35;;;22.30;99.90;;;;;;4951014;28;20207;-67
2021/07/07 03:23:11;;;;;;;2.53;2.42;;;22.30;99.90;;;;;;4951324;28;20276;-67
2021/07/07 03:25:38;;;;;;;2.58;2.47;;;22.30;99.90;;;;;;4950281;28;20202;-67
2021/07/07 03:28:06;;;;;;;3.10;2.90;;;22.30;99.90;;;;;;4951784;28;20292;-66
2021/07/07 03:30:34;;;;;;;3.95;3.53;;;22.30;99.90;;;;;;4951297;28;20635;-67
2021/07/07 03:33:01;;;;;;;3.00;2.78;;;22.30;99.90;;;;;;4964600;28;20232;-67
2021/07/07 03:35:28;;;;;;;3.10;2.90;;;22.20;99.90;;;;;;4950526;29;20239;-67
2021/07/07 03:37:56;;;;;;;2.95;2.65;;;22.20;99.90;;;;;;4951935;28;20211;-67
2021/07/07 03:40:26;;;;;;;3.10;3.00;;;22.20;99.90;;;;;;4951278;28;20618;-67
2021/07/07 03:42:53;;;;;;;3.40;3.20;;;22.20;99.90;;;;;;4951137;28;20201;-66
2021/07/07 03:45:21;;;;;;;2.88;2.78;;;22.20;99.90;;;;;;4950957;29;20216;-68
2021/07/07 03:47:49;;;;;;;3.20;3.00;;;22.20;99.90;;;;;;4947045;28;20284;-67
2021/07/07 03:50:17;;;;;;;3.15;2.70;;;22.20;99.90;;;;;;4950607;28;20666;-67
2021/07/07 03:52:44;;;;;;;3.13;3.00;;;22.20;99.90;;;;;;4951343;28;20204;-67
2021/07/07 03:55:13;;;;;;;3.22;3.03;;;22.30;99.90;;;;;;4950688;29;20256;-67
2021/07/07 03:57:42;;;;;;;3.38;3.08;;;22.30;99.90;;;;;;4951765;29;20200;-66
2021/07/07 04:00:12;;;;;;;5.40;3.10;;;22.30;99.90;;;;;;4948957;29;20200;-66
2021/07/07 04:02:41;;;;;;;3.10;2.90;;;22.30;99.90;;;;;;4950316;28;20235;-66
2021/07/07 04:05:11;;;;;;;2.85;2.72;;;22.30;99.90;;;;;;4948303;28;20581;-67
2021/07/07 04:07:38;;;;;;;2.60;2.50;;;22.30;99.90;;;;;;4944718;29;20674;-66
2021/07/07 04:10:07;;;;;;;2.72;2.50;;;22.30;99.90;;;;;;4950997;28;20276;-65
2021/07/07 04:12:34;;;;;;;2.90;2.80;;;22.40;99.90;;;;;;4949223;29;20205;-65
2021/07/07 04:15:03;;;;;;;3.63;3.33;;;22.40;99.90;;;;;;4950487;29;20204;-66
2021/07/07 04:17:30;;;;;;;3.28;3.08;;;22.40;99.90;;;;;;4950219;29;20199;-68
2021/07/07 04:19:57;;;;;;;3.88;3.53;;;22.50;99.90;;;;;;4950173;29;20233;-66
2021/07/07 04:22:24;;;;;;;3.40;3.20;;;22.50;99.90;;;;;;4950805;28;20811;-67
2021/07/07 04:24:54;;;;;;;3.22;3.03;;;22.50;99.90;;;;;;4950234;28;20280;-67
2021/07/07 04:27:21;;;;;;;4.07;3.78;;;22.50;99.90;;;;;;4949338;28;20255;-67
2021/07/07 04:29:48;;;;;;;3.90;3.60;;;22.50;99.90;;;;;;4943427;28;20204;-67
2021/07/07 04:32:17;;;;;;;3.35;3.15;;;22.50;99.90;;;;;;4949603;28;20319;-67
2021/07/07 04:34:44;;;;;;;5.05;3.45;;;22.50;99.90;;;;;;4949859;28;20201;-67
2021/07/07 04:37:11;;;;;;;4.20;3.70;;;22.60;99.90;;;;;;4949520;29;20232;-67
2021/07/07 04:39:38;;;;;;;3.42;3.22;;;22.60;99.90;;;;;;4950277;28;20308;-68
2021/07/07 04:42:05;;;;;;;3.72;3.40;;;22.60;99.90;;;;;;4950199;29;20716;-68
2021/07/07 04:44:33;;;;;;;3.28;3.08;;;22.60;99.90;;;;;;4949821;29;20206;-67
2021/07/07 04:47:00;;;;;;;3.70;3.38;;;22.70;99.90;;;;;;4950071;29;20204;-67
2021/07/07 04:49:28;;;;;;;3.05;2.83;;;22.80;99.90;;;;;;4948345;29;20298;-66
2021/07/07 04:51:55;;;;;;;3.15;2.95;;;22.80;99.90;;;;;;4950901;29;20197;-67
2021/07/07 04:54:22;;;;;;;3.65;3.45;;;22.90;99.90;;;;;;4949535;28;20295;-66
2021/07/07 04:56:49;;;;;;;3.00;2.85;;;23.00;99.90;;;;;;4950816;29;20288;-66
2021/07/07 04:59:16;;;;;;;3.40;3.10;;;23.10;99.90;;;;;;4965264;28;20551;-66
2021/07/07 05:01:43;;;;;;;3.70;2.90;;;23.20;99.90;;;;;;4949244;29;20237;-66
2021/07/07 05:04:10;;;;;;;2.88;2.67;;;23.30;99.90;;;;;;4949329;29;21046;-67
2021/07/07 05:06:38;;;;;;;3.03;2.72;;;23.40;99.90;;;;;;4950139;29;20193;-67
2021/07/07 05:09:05;;;;;;;3.30;3.03;;;23.40;99.90;;;;;;4949960;28;20201;-67
2021/07/07 05:11:32;;;;;;;3.78;3.58;;;23.50;99.90;;;;;;4950651;28;20670;-67
2021/07/07 05:14:00;;;;;;;4.75;3.35;;;23.50;99.90;;;;;;4940945;28;20205;-66
2021/07/07 05:16:27;;;;;;;3.10;2.90;;;23.50;99.90;;;;;;4948531;28;20240;-67
2021/07/07 05:18:54;;;;;;;3.00;2.80;;;23.60;99.90;;;;;;4947886;28;20213;-67
2021/07/07 05:21:21;;;;;;;2.83;2.72;;;23.60;99.90;;;;;;4950329;29;20199;-67
2021/07/07 05:23:49;;;;;;;4.20;3.13;;;23.70;99.90;;;;;;4948251;29;20320;-67
2021/07/07 05:26:16;;;;;;;3.55;3.30;;;23.80;99.90;;;;;;4950361;28;20221;-67
2021/07/07 05:28:43;;;;;;;3.05;2.85;;;23.90;99.90;;;;;;4950356;29;20621;-66
2021/07/07 05:31:10;;;;;;;3.72;3.45;;;24.00;99.90;;;;;;4949756;29;20217;-67
2021/07/07 05:33:38;;;;;;;3.83;3.50;;;24.00;99.90;;;;;;4948176;29;20205;-67
2021/07/07 05:36:06;;;;;;;7.13;4.32;;;24.10;99.90;;;;;;4949822;28;20213;-67
2021/07/07 05:38:33;;;;;;;3.88;3.55;;;24.20;99.90;;;;;;4951959;28;20740;-67
2021/07/07 05:41:02;;;;;;;4.32;3.47;;;24.30;99.90;;;;;;4949310;29;20241;-67
2021/07/07 05:43:29;;;;;;;4.00;3.70;;;24.40;99.90;;;;;;4952973;29;20199;-66
2021/07/07 05:45:57;;;;;;;3.60;3.35;;;24.50;99.90;;;;;;4953528;28;20193;-67
2021/07/07 05:48:25;;;;;;;3.92;3.55;;;24.70;99.90;;;;;;4947070;28;20553;-68
2021/07/07 05:50:53;;;;;;;3.40;3.20;;;24.80;99.90;;;;;;4953247;28;20684;-67
2021/07/07 05:53:20;;;;;;;4.10;3.80;;;24.90;99.90;;;;;;4952334;28;20201;-67
2021/07/07 05:55:47;;;;;;;3.70;3.47;;;25.00;99.90;;;;;;4953094;28;20258;-66
2021/07/07 05:58:15;;;;;;;3.50;3.30;;;25.00;99.90;;;;;;4952862;29;20197;-66
2021/07/07 06:00:42;;;;;;;3.28;3.08;;;25.10;99.90;;;;;;4953617;28;20256;-67
2021/07/07 06:03:11;;;;;;;2.90;2.75;;;25.20;99.90;;;;;;4952164;28;20260;-68
2021/07/07 06:05:38;;;;;;;3.45;3.15;;;25.40;99.90;;;;;;4952352;29;20720;-67
2021/07/07 06:08:06;;;;;;;3.95;3.75;;;25.60;99.90;;;;;;4953115;28;20697;-67
2021/07/07 06:10:33;;;;;;;4.07;3.78;;;25.80;99.90;;;;;;4953301;28;20269;-67
2021/07/07 06:13:00;;;;;;;3.75;3.55;;;25.90;99.90;;;;;;4953202;29;20197;-67
2021/07/07 06:15:28;;;;;;;3.40;3.10;;;26.10;99.90;;;;;;4952826;28;20292;-68
2021/07/07 06:17:55;;;;;;;3.38;3.17;;;26.80;99.90;;;;;;4952399;29;20206;-67
2021/07/07 06:20:23;;;;;;;2.88;2.67;;;28.40;99.90;;;;;;4951032;28;20237;-67
2021/07/07 06:22:50;;;;;;;3.13;2.95;;;30.20;99.90;;;;;;4953142;29;20209;-67
2021/07/07 06:25:17;;;;;;;2.70;2.60;;;31.40;99.50;;;;;;4952809;28;20216;-67
2021/07/07 06:27:45;;;;;;;2.92;2.83;;;32.10;97.00;;;;;;4953125;29;20197;-67
2021/07/07 06:30:14;;;;;;;2.70;2.42;;;31.90;95.70;;;;;;4938269;29;20217;-67
2021/07/07 06:32:44;;;;;;;3.15;2.85;;;31.40;95.60;;;;;;4948549;28;20553;-66
2021/07/07 06:35:11;;;;;;;2.83;2.67;;;30.90;96.20;;;;;;4940842;29;20216;-66
2021/07/07 06:37:38;;;;;;;3.28;3.08;;;30.50;96.30;;;;;;4949725;29;20217;-66
2021/07/07 06:40:08;;;;;;;3.08;2.88;;;30.10;96.40;;;;;;4949498;28;20284;-66
2021/07/07 06:42:36;;;;;;;3.03;2.85;;;29.80;96.90;;;;;;4945119;29;20225;-65
2021/07/07 06:45:04;;;;;;;3.00;2.80;;;29.50;97.20;;;;;;4949265;28;20193;-65
2021/07/07 06:47:31;;;;;;;2.95;2.78;;;29.30;97.50;;;;;;4949696;28;20284;-65
2021/07/07 06:50:01;;;;;;;3.17;2.83;;;29.10;97.70;;;;;;4948540;28;20289;-65
2021/07/07 06:52:28;;;;;;;3.00;2.90;;;29.20;97.80;;;;;;4950270;28;20213;-65
2021/07/07 06:54:55;;;;;;;2.70;2.60;;;30.10;97.20;;;;;;4949846;28;20199;-66
2021/07/07 06:57:22;;;;;;;6.15;3.45;;;31.20;95.60;;;;;;4949944;28;20233;-65
2021/07/07 06:59:49;;;;;;;3.08;2.88;;;31.70;93.80;;;;;;4948808;29;20205;-67
2021/07/07 07:02:16;;;;;;;2.90;2.70;;;31.70;93.20;;;;;;4949815;29;20300;-65
2021/07/07 07:04:44;;;;;;;2.60;2.47;;;31.70;93.10;;;;;;4945987;29;20288;-67
2021/07/07 07:07:12;;;;;;;2.72;2.63;;;31.80;92.70;;;;;;4939719;29;20252;-66
2021/07/07 07:09:39;;;;;;;3.45;2.50;;;32.90;91.90;;;;;;4947900;28;20201;-66
2021/07/07 07:12:06;;;;;;;2.83;2.70;;;34.30;89.10;;;;;;4949137;29;20204;-66
2021/07/07 07:14:33;;;;;;;2.85;2.70;;;35.40;84.50;;;;;;4943800;28;20209;-67
2021/07/07 07:17:00;;;;;;;2.30;2.20;;;36.70;79.10;;;;;;4948030;29;20221;-67
2021/07/07 07:19:28;;;;;;;2.88;2.72;;;37.80;74.30;;;;;;4949012;29;20272;-66
2021/07/07 07:21:55;;;;;;;2.83;2.63;;;38.40;70.20;;;;;;4948820;29;20207;-67
2021/07/07 07:24:23;;;;;;;2.25;2.15;;;38.50;68.20;;;;;;4947926;28;20292;-66
2021/07/07 07:26:50;;;;;;;2.63;2.47;;;38.20;67.50;;;;;;4950102;29;20232;-67
2021/07/07 07:29:17;;;;;;;4.25;3.45;;;37.60;67.80;;;;;;4947042;28;20652;-67
2021/07/07 07:31:44;;;;;;;3.92;3.63;;;36.90;68.10;;;;;;4963536;28;20693;-68
2021/07/07 07:34:13;;;;;;;3.72;3.53;;;36.40;68.40;;;;;;4948070;29;20228;-67
2021/07/07 07:36:40;;;;;;;3.60;3.40;;;35.90;69.10;;;;;;4948629;28;20300;-68
2021/07/07 07:39:15;;;;;;;3.38;3.17;;;35.30;70.20;;;;;;4963528;28;20201;-67
2021/07/07 07:41:43;;;;;;;3.42;3.13;;;34.70;71.20;;;;;;4948870;29;20593;-67
